createdAt,value
2018-01-01T00:01:23.779Z,99106.47
2018-01-01T00:03:52.131Z,99093.78
2018-01-01T00:06:20.511Z,99100.80
2018-01-01T00:08:48.870Z,99110.47
2018-01-01T00:11:17.267Z,99102.19
2018-01-01T00:13:45.638Z,99099.91
2018-01-01T00:16:14.037Z,99112.52
2018-01-01T00:18:44.035Z,99102.06
2018-01-01T00:21:12.395Z,99100.34
2018-01-01T00:23:40.738Z,99108.48
2018-01-01T00:26:09.157Z,99097.67
2018-01-01T00:28:37.574Z,99108.05
2018-01-01T00:31:06.054Z,99107.99
2018-01-01T00:33:34.403Z,99100.86
2018-01-01T00:36:02.875Z,99101.94
2018-01-01T00:38:31.291Z,99091.98
2018-01-01T00:40:59.638Z,99090.78
2018-01-01T00:43:28.027Z,99098.88
2018-01-01T00:45:56.411Z,99097.40
2018-01-01T00:48:25.040Z,99083.76
2018-01-01T00:50:53.395Z,99079.66
2018-01-01T00:53:21.751Z,99071.80
2018-01-01T00:55:50.134Z,99069.48
2018-01-01T00:58:18.480Z,99067.59
2018-01-01T01:00:46.829Z,99069.34
2018-01-01T01:03:15.267Z,99083.88
2018-01-01T01:05:43.602Z,99072.09
2018-01-01T01:08:12.359Z,99074.98
2018-01-01T01:10:40.716Z,99071.03
2018-01-01T01:13:09.090Z,99075.62
2018-01-01T01:15:37.455Z,99078.75
2018-01-01T01:18:05.815Z,99079.34
2018-01-01T01:20:34.175Z,99078.27
2018-01-01T01:23:02.909Z,99078.60
2018-01-01T01:25:31.283Z,99091.80
2018-01-01T01:27:59.645Z,99085.09
2018-01-01T01:30:27.991Z,99093.02
2018-01-01T01:32:56.450Z,99084.56
2018-01-01T01:35:24.795Z,99079.55
2018-01-01T01:37:53.191Z,99087.52
2018-01-01T01:40:21.577Z,99090.95
2018-01-01T01:42:49.943Z,99087.36
2018-01-01T01:45:18.300Z,99092.48
2018-01-01T01:47:46.694Z,99101.84
2018-01-01T01:50:15.175Z,99104.68
2018-01-01T01:52:43.528Z,99110.31
2018-01-01T01:55:12.859Z,99110.06
2018-01-01T01:57:41.246Z,99115.90
2018-01-01T02:00:10.340Z,99115.28
2018-01-01T02:02:38.703Z,99106.68
2018-01-01T02:05:07.071Z,99114.11
2018-01-01T02:07:35.413Z,99105.78
2018-01-01T02:10:04.171Z,99100.08
2018-01-01T02:12:32.539Z,99102.77
2018-01-01T02:15:00.919Z,99092.15
2018-01-01T02:17:29.296Z,99095.25
2018-01-01T02:19:57.635Z,99102.03
2018-01-01T02:22:26.062Z,99104.44
2018-01-01T02:24:54.407Z,99106.98
2018-01-01T02:27:22.812Z,99122.45
2018-01-01T02:29:51.198Z,99116.28
2018-01-01T02:32:33.317Z,99105.32
2018-01-01T02:35:01.806Z,99111.53
2018-01-01T02:37:30.284Z,99110.16
2018-01-01T02:39:58.660Z,99120.47
2018-01-01T02:42:27.056Z,99125.26
2018-01-01T02:44:55.825Z,99133.43
2018-01-01T02:47:24.180Z,99130.38
2018-01-01T02:49:52.551Z,99133.56
2018-01-01T02:52:20.924Z,99144.61
2018-01-01T02:54:49.291Z,99150.73
2018-01-01T02:57:17.656Z,99142.61
2018-01-01T02:59:46.668Z,99135.77
2018-01-01T03:02:15.031Z,99145.94
2018-01-01T03:04:43.459Z,99152.84
2018-01-01T03:07:11.821Z,99156.88
2018-01-01T03:09:40.197Z,99166.82
2018-01-01T03:12:08.560Z,99163.14
2018-01-01T03:14:36.925Z,99176.89
2018-01-01T03:17:05.360Z,99172.80
2018-01-01T03:19:33.768Z,99178.34
2018-01-01T03:22:02.565Z,99172.21
2018-01-01T03:24:30.960Z,99177.67
2018-01-01T03:26:59.407Z,99171.77
2018-01-01T03:29:28.288Z,99184.34
2018-01-01T03:31:56.686Z,99181.41
2018-01-01T03:34:25.469Z,99181.48
2018-01-01T03:36:54.244Z,99187.73
2018-01-01T03:39:23.105Z,99192.33
2018-01-01T03:41:51.501Z,99195.06
2018-01-01T03:44:19.902Z,99200.63
2018-01-01T03:46:48.676Z,99199.03
2018-01-01T03:49:17.156Z,99200.16
2018-01-01T03:51:45.544Z,99201.13
2018-01-01T03:54:14.017Z,99207.02
2018-01-01T03:56:42.553Z,99194.46
2018-01-01T03:59:10.927Z,99186.92
2018-01-01T04:01:39.324Z,99196.67
2018-01-01T04:04:07.743Z,99193.25
2018-01-01T04:06:36.233Z,99196.08
2018-01-01T04:09:04.612Z,99198.43
2018-01-01T04:11:33.492Z,99189.84
2018-01-01T04:14:01.868Z,99191.30
2018-01-01T04:16:30.247Z,99192.59
2018-01-01T04:18:58.734Z,99197.19
2018-01-01T04:21:27.112Z,99197.80
2018-01-01T04:23:55.591Z,99204.89
2018-01-01T04:26:24.074Z,99211.50
2018-01-01T04:28:52.461Z,99203.34
2018-01-01T04:31:21.236Z,99211.50
2018-01-01T04:33:49.619Z,99206.33
2018-01-01T04:36:18.008Z,99208.41
2018-01-01T04:38:46.586Z,99213.80
2018-01-01T04:41:15.375Z,99212.99
2018-01-01T04:43:44.165Z,99209.33
2018-01-01T04:46:12.991Z,99203.52
2018-01-01T04:48:41.370Z,99208.52
2018-01-01T04:51:09.796Z,99210.00
2018-01-01T04:53:38.185Z,99209.02
2018-01-01T04:56:06.589Z,99215.47
2018-01-01T04:58:34.979Z,99215.02
2018-01-01T05:01:03.432Z,99211.82
2018-01-01T05:03:32.257Z,99218.49
2018-01-01T05:06:00.639Z,99222.36
2018-01-01T05:08:29.019Z,99215.55
2018-01-01T05:10:57.448Z,99226.56
2018-01-01T05:13:25.856Z,99225.09
2018-01-01T05:15:54.255Z,99227.56
2018-01-01T05:18:22.716Z,99215.43
2018-01-01T05:20:51.128Z,99217.97
2018-01-01T05:23:19.507Z,99213.41
2018-01-01T05:25:47.888Z,99215.71
2018-01-01T05:28:16.283Z,99218.06
2018-01-01T05:30:44.679Z,99225.27
2018-01-01T05:33:13.155Z,99232.61
2018-01-01T05:35:41.540Z,99233.77
2018-01-01T05:38:09.919Z,99228.67
2018-01-01T05:40:38.395Z,99229.98
2018-01-01T05:43:06.782Z,99240.70
2018-01-01T05:45:35.184Z,99244.02
2018-01-01T05:48:04.050Z,99260.88
2018-01-01T05:50:32.940Z,99251.54
2018-01-01T05:53:01.313Z,99248.69
2018-01-01T05:55:29.799Z,99239.83
2018-01-01T05:57:58.284Z,99239.21
2018-01-01T06:00:26.660Z,99239.32
2018-01-01T06:02:55.060Z,99245.63
2018-01-01T06:05:23.862Z,99257.61
2018-01-01T06:07:52.262Z,99258.66
2018-01-01T06:10:20.643Z,99265.50
2018-01-01T06:12:49.031Z,99281.57
2018-01-01T06:15:17.442Z,99280.00
2018-01-01T06:17:45.835Z,99287.58
2018-01-01T06:20:14.608Z,99291.17
2018-01-01T06:22:43.100Z,99304.91
2018-01-01T06:25:11.878Z,99318.38
2018-01-01T06:27:40.360Z,99321.55
2018-01-01T06:30:08.868Z,99313.76
2018-01-01T06:32:37.660Z,99321.85
2018-01-01T06:35:06.458Z,99325.84
2018-01-01T06:37:34.849Z,99333.05
2018-01-01T06:40:03.330Z,99339.27
2018-01-01T06:42:31.759Z,99331.49
2018-01-01T06:45:00.136Z,99362.17
2018-01-01T06:47:28.540Z,99374.44
2018-01-01T06:49:57.325Z,99342.73
2018-01-01T06:52:26.106Z,99358.22
2018-01-01T06:54:54.597Z,99351.26
2018-01-01T06:57:23.378Z,99346.30
2018-01-01T06:59:52.351Z,99358.08
2018-01-01T07:02:20.750Z,99361.61
2018-01-01T07:04:49.524Z,99367.96
2018-01-01T07:07:18.000Z,99365.85
2018-01-01T07:09:46.383Z,99359.20
2018-01-01T07:12:14.788Z,99371.19
2018-01-01T07:14:43.664Z,99373.64
2018-01-01T07:17:12.040Z,99369.09
2018-01-01T07:19:40.532Z,99362.95
2018-01-01T07:22:08.984Z,99358.67
2018-01-01T07:24:37.419Z,99365.60
2018-01-01T07:27:05.885Z,99368.03
2018-01-01T07:29:34.349Z,99370.51
2018-01-01T07:32:02.782Z,99383.37
2018-01-01T07:34:31.172Z,99385.70
2018-01-01T07:36:59.563Z,99396.09
2018-01-01T07:39:27.961Z,99398.61
2018-01-01T07:41:56.537Z,99400.45
2018-01-01T07:44:24.917Z,99403.34
2018-01-01T07:46:53.311Z,99398.69
2018-01-01T07:49:21.711Z,99406.55
2018-01-01T07:51:50.186Z,99404.48
2018-01-01T07:54:18.744Z,99404.35
2018-01-01T07:56:47.236Z,99402.41
2018-01-01T07:59:16.108Z,99412.93
2018-01-01T08:01:44.483Z,99413.83
2018-01-01T08:04:12.972Z,99423.33
2018-01-01T08:06:41.457Z,99421.77
2018-01-01T08:09:10.617Z,99417.41
2018-01-01T08:11:39.078Z,99418.76
2018-01-01T08:14:07.933Z,99430.19
2018-01-01T08:16:36.741Z,99427.05
2018-01-01T08:19:05.133Z,99438.88
2018-01-01T08:21:33.580Z,99439.55
2018-01-01T08:24:02.360Z,99440.62
2018-01-01T08:26:30.844Z,99434.67
2018-01-01T08:28:59.237Z,99447.91
2018-01-01T08:31:28.030Z,99442.97
2018-01-01T08:33:56.912Z,99447.35
2018-01-01T08:36:25.801Z,99454.98
2018-01-01T08:38:54.692Z,99451.66
2018-01-01T08:41:23.495Z,99459.83
2018-01-01T08:43:51.888Z,99455.33
2018-01-01T08:46:20.328Z,99464.27
2018-01-01T08:48:48.727Z,99467.84
2018-01-01T08:51:17.605Z,99464.48
2018-01-01T08:53:46.391Z,99466.94
2018-01-01T08:56:15.272Z,99472.14
2018-01-01T08:58:43.660Z,99480.65
2018-01-01T09:01:12.028Z,99483.05
2018-01-01T09:03:40.437Z,99488.91
2018-01-01T09:06:08.829Z,99473.28
2018-01-01T09:08:37.281Z,99482.09
2018-01-01T09:11:06.164Z,99471.44
2018-01-01T09:13:34.546Z,99468.29
2018-01-01T09:16:02.972Z,99480.96
2018-01-01T09:18:31.372Z,99475.39
2018-01-01T09:20:59.761Z,99487.89
2018-01-01T09:23:28.141Z,99484.36
2018-01-01T09:25:56.697Z,99494.52
2018-01-01T09:28:26.085Z,99488.28
2018-01-01T09:30:54.532Z,99509.31
2018-01-01T09:33:23.322Z,99497.31
2018-01-01T09:35:52.221Z,99503.83
2018-01-01T09:38:21.100Z,99504.92
2018-01-01T09:40:50.003Z,99512.34
2018-01-01T09:43:18.791Z,99516.85
2018-01-01T09:45:47.572Z,99519.72
2018-01-01T09:48:16.388Z,99518.30
2018-01-01T09:50:45.571Z,99514.05
2018-01-01T09:53:14.352Z,99493.88
2018-01-01T09:55:43.224Z,99514.97
2018-01-01T09:58:11.704Z,99511.47
2018-01-01T10:00:40.106Z,99504.73
2018-01-01T10:03:09.027Z,99519.50
2018-01-01T10:05:37.420Z,99515.92
2018-01-01T10:08:05.804Z,99512.47
2018-01-01T10:10:34.195Z,99504.58
2018-01-01T10:13:02.772Z,99520.58
2018-01-01T10:15:31.172Z,99524.89
2018-01-01T10:17:59.585Z,99525.51
2018-01-01T10:20:27.977Z,99533.36
2018-01-01T10:22:56.421Z,99522.99
2018-01-01T10:25:24.906Z,99534.19
2018-01-01T10:27:53.798Z,99529.73
2018-01-01T10:30:22.606Z,99534.70
2018-01-01T10:32:51.072Z,99533.31
2018-01-01T10:35:19.533Z,99544.71
2018-01-01T10:37:47.933Z,99542.90
2018-01-01T10:40:16.732Z,99534.29
2018-01-01T10:42:45.508Z,99535.75
2018-01-01T10:45:14.284Z,99548.22
2018-01-01T10:47:42.768Z,99547.66
2018-01-01T10:50:11.143Z,99546.23
2018-01-01T10:52:39.534Z,99549.08
2018-01-01T10:55:08.323Z,99542.34
2018-01-01T10:57:37.112Z,99544.20
2018-01-01T11:00:05.888Z,99543.34
2018-01-01T11:02:34.320Z,99546.94
2018-01-01T11:05:02.746Z,99537.46
2018-01-01T11:07:31.132Z,99542.48
2018-01-01T11:10:00.027Z,99532.91
2018-01-01T11:12:28.445Z,99537.22
2018-01-01T11:14:56.831Z,99533.77
2018-01-01T11:18:23.210Z,99538.45
2018-01-01T11:20:51.673Z,99526.73
2018-01-01T11:23:20.149Z,99525.58
2018-01-01T11:25:48.491Z,99522.81
2018-01-01T11:28:16.851Z,99527.83
2018-01-01T11:30:45.711Z,99519.30
2018-01-01T11:33:14.076Z,99507.73
2018-01-01T11:35:42.435Z,99521.48
2018-01-01T11:38:10.840Z,99508.36
2018-01-01T11:40:39.225Z,99510.25
2018-01-01T11:43:07.712Z,99511.94
2018-01-01T11:45:36.080Z,99513.18
2018-01-01T11:48:04.433Z,99514.05
2018-01-01T11:50:32.843Z,99513.20
2018-01-01T11:53:01.208Z,99505.06
2018-01-01T11:55:29.567Z,99513.41
2018-01-01T11:57:57.982Z,99519.63
2018-01-01T12:00:26.344Z,99511.82
2018-01-01T12:02:54.714Z,99503.62
2018-01-01T12:05:23.100Z,99509.55
2018-01-01T12:07:51.500Z,99498.86
2018-01-01T12:10:19.856Z,99502.81
2018-01-01T12:12:48.472Z,99505.30
2018-01-01T12:15:16.924Z,99497.17
2018-01-01T12:17:45.272Z,99503.38
2018-01-01T12:20:13.624Z,99500.72
2018-01-01T12:22:42.502Z,99506.20
2018-01-01T12:25:10.935Z,99501.66
2018-01-01T12:27:39.275Z,99506.33
2018-01-01T12:30:08.191Z,99513.95
2018-01-01T12:32:36.565Z,99513.59
2018-01-01T12:35:04.928Z,99502.37
2018-01-01T12:37:33.759Z,99493.73
2018-01-01T12:40:02.146Z,99499.17
2018-01-01T12:42:30.500Z,99494.61
2018-01-01T12:44:58.843Z,99503.33
2018-01-01T12:47:27.596Z,99494.69
2018-01-01T12:49:55.977Z,99496.34
2018-01-01T12:52:24.323Z,99496.16
2018-01-01T12:54:52.680Z,99502.73
2018-01-01T12:57:21.507Z,99491.37
2018-01-01T12:59:49.884Z,99500.76
2018-01-01T13:02:18.239Z,99499.32
2018-01-01T13:04:46.635Z,99500.82
2018-01-01T13:07:15.003Z,99496.85
2018-01-01T13:09:43.364Z,99496.73
2018-01-01T13:12:11.789Z,99490.58
2018-01-01T13:14:40.139Z,99487.29
2018-01-01T13:17:08.504Z,99491.96
2018-01-01T13:19:36.923Z,99487.53
2018-01-01T13:22:05.304Z,99486.13
2018-01-01T13:24:33.724Z,99505.61
2018-01-01T13:27:02.072Z,99502.92
2018-01-01T13:29:30.423Z,99507.73
2018-01-01T13:31:58.787Z,99509.41
2018-01-01T13:34:27.154Z,99495.00
2018-01-01T13:36:55.576Z,99514.98
2018-01-01T13:39:23.943Z,99512.98
2018-01-01T13:41:52.379Z,99509.72
2018-01-01T13:44:21.116Z,99513.95
2018-01-01T13:46:49.467Z,99515.00
2018-01-01T13:49:17.820Z,99514.67
2018-01-01T13:51:46.575Z,99514.59
2018-01-01T13:54:14.956Z,99526.36
2018-01-01T13:56:43.329Z,99524.92
2018-01-01T13:59:11.688Z,99529.00
2018-01-01T14:01:40.081Z,99521.78
2018-01-01T14:04:08.448Z,99527.53
2018-01-01T14:06:36.796Z,99516.05
2018-01-01T14:09:05.212Z,99516.56
2018-01-01T14:11:33.567Z,99518.27
2018-01-01T14:14:01.941Z,99520.44
2018-01-01T14:16:30.447Z,99514.78
2018-01-01T14:18:58.797Z,99522.62
2018-01-01T14:21:27.163Z,99514.08
2018-01-01T14:23:55.912Z,99513.98
2018-01-01T14:26:24.385Z,99518.53
2018-01-01T14:28:52.760Z,99518.72
2018-01-01T14:31:21.224Z,99518.50
2018-01-01T14:33:49.586Z,99523.80
2018-01-01T14:36:17.944Z,99522.80
2018-01-01T14:38:46.714Z,99529.00
2018-01-01T14:41:15.156Z,99525.22
2018-01-01T14:43:43.530Z,99526.39
2018-01-01T14:46:11.905Z,99523.42
2018-01-01T14:48:40.303Z,99530.86
2018-01-01T14:51:08.647Z,99520.14
2018-01-01T14:53:37.015Z,99517.77
2018-01-01T14:56:05.424Z,99520.47
2018-01-01T14:58:33.784Z,99536.14
2018-01-01T15:01:02.177Z,99529.96
2018-01-01T15:03:30.575Z,99516.78
2018-01-01T15:05:58.920Z,99526.02
2018-01-01T15:08:27.980Z,99521.16
2018-01-01T15:10:56.893Z,99520.53
2018-01-01T15:13:25.236Z,99507.67
2018-01-01T15:15:54.689Z,99517.06
2018-01-01T15:18:23.035Z,99517.78
2018-01-01T15:20:51.783Z,99521.59
2018-01-01T15:23:20.139Z,99510.95
2018-01-01T15:25:48.536Z,99505.34
2018-01-01T15:28:16.879Z,99512.50
2018-01-01T15:30:45.233Z,99509.09
2018-01-01T15:33:14.383Z,99507.97
2018-01-01T15:35:42.728Z,99508.23
2018-01-01T15:38:11.729Z,99509.47
2018-01-01T15:40:40.161Z,99506.01
2018-01-01T15:43:08.519Z,99506.79
2018-01-01T15:45:36.885Z,99508.52
2018-01-01T15:48:05.236Z,99510.78
2018-01-01T15:50:33.656Z,99513.09
2018-01-01T15:53:02.004Z,99504.20
2018-01-01T15:55:30.408Z,99505.66
2018-01-01T15:57:58.796Z,99506.09
2018-01-01T16:00:27.148Z,99502.77
2018-01-01T16:02:55.544Z,99501.80
2018-01-01T16:05:23.891Z,99506.02
2018-01-01T16:07:52.240Z,99505.84
2018-01-01T16:10:20.599Z,99499.96
2018-01-01T16:12:48.942Z,99501.72
2018-01-01T16:15:17.315Z,99492.42
2018-01-01T16:17:45.658Z,99500.70
2018-01-01T16:20:14.396Z,99493.60
2018-01-01T16:22:42.747Z,99499.77
2018-01-01T16:25:11.160Z,99497.14
2018-01-01T16:27:39.521Z,99500.78
2018-01-01T16:30:07.960Z,99494.39
2018-01-01T16:32:36.313Z,99491.85
2018-01-01T16:35:04.648Z,99497.15
2018-01-01T16:37:33.008Z,99499.77
2018-01-01T16:40:01.847Z,99506.98
2018-01-01T16:42:30.206Z,99502.10
2018-01-01T16:44:58.552Z,99500.86
2018-01-01T16:47:27.422Z,99505.03
2018-01-01T16:49:55.763Z,99505.86
2018-01-01T16:52:24.120Z,99505.17
2018-01-01T16:54:52.484Z,99495.09
2018-01-01T16:57:21.239Z,99497.04
2018-01-01T16:59:49.586Z,99492.55
2018-01-01T17:02:17.971Z,99495.36
2018-01-01T17:04:46.336Z,99494.25
2018-01-01T17:07:14.701Z,99496.58
2018-01-01T17:09:43.116Z,99492.19
2018-01-01T17:12:11.480Z,99497.87
2018-01-01T17:14:40.736Z,99501.80
2018-01-01T17:17:09.567Z,99493.47
2018-01-01T17:19:37.911Z,99491.19
2018-01-01T17:22:06.319Z,99489.76
2018-01-01T17:24:34.700Z,99488.74
2018-01-01T17:27:03.151Z,99491.83
2018-01-01T17:29:31.543Z,99499.41
2018-01-01T17:31:59.905Z,99496.59
2018-01-01T17:34:28.678Z,99500.49
2018-01-01T17:36:57.440Z,99500.77
2018-01-01T17:39:25.783Z,99485.10
2018-01-01T17:41:54.152Z,99493.59
2018-01-01T17:44:22.491Z,99488.10
2018-01-01T17:46:50.841Z,99480.66
2018-01-01T17:49:19.210Z,99482.05
2018-01-01T17:51:47.548Z,99482.71
2018-01-01T17:54:16.314Z,99480.30
2018-01-01T17:56:44.667Z,99470.94
2018-01-01T17:59:13.009Z,99474.09
2018-01-01T18:01:41.384Z,99475.78
2018-01-01T18:04:09.754Z,99470.08
2018-01-01T18:06:38.181Z,99472.49
2018-01-01T18:09:06.524Z,99479.09
2018-01-01T18:11:34.885Z,99480.36
2018-01-01T18:14:03.649Z,99482.42
2018-01-01T18:16:31.995Z,99487.81
2018-01-01T18:19:00.401Z,99495.48
2018-01-01T18:21:28.764Z,99495.48
2018-01-01T18:23:57.150Z,99492.48
2018-01-01T18:26:25.505Z,99497.78
2018-01-01T18:28:53.895Z,99503.87
2018-01-01T18:31:22.374Z,99504.79
2018-01-01T18:33:50.939Z,99512.00
2018-01-01T18:36:19.354Z,99507.64
2018-01-01T18:38:47.735Z,99502.52
2018-01-01T18:41:16.084Z,99500.64
2018-01-01T18:43:44.455Z,99496.27
2018-01-01T18:46:12.798Z,99499.50
2018-01-01T18:48:41.148Z,99500.22
2018-01-01T18:51:09.580Z,99497.61
2018-01-01T18:53:37.986Z,99492.80
2018-01-01T18:56:06.357Z,99493.86
2018-01-01T18:58:34.718Z,99492.17
2018-01-01T19:01:03.067Z,99486.98
2018-01-01T19:03:31.912Z,99489.05
2018-01-01T19:06:00.272Z,99499.39
2018-01-01T19:08:28.634Z,99508.03
2018-01-01T19:10:56.993Z,99501.11
2018-01-01T19:13:25.756Z,99506.17
2018-01-01T19:15:54.115Z,99501.70
2018-01-01T19:18:22.758Z,99499.94
2018-01-01T19:20:51.183Z,99493.84
2018-01-01T19:23:19.580Z,99493.87
2018-01-01T19:25:47.948Z,99488.59
2018-01-01T19:28:16.387Z,99501.64
2018-01-01T19:30:44.820Z,99506.52
2018-01-01T19:33:13.178Z,99497.08
2018-01-01T19:35:41.557Z,99495.16
2018-01-01T19:38:09.904Z,99499.64
2018-01-01T19:40:38.247Z,99488.44
2018-01-01T19:43:06.995Z,99481.39
2018-01-01T19:45:35.341Z,99481.92
2018-01-01T19:48:03.747Z,99477.47
2018-01-01T19:50:32.083Z,99484.03
2018-01-01T19:53:00.908Z,99478.00
2018-01-01T19:55:29.265Z,99475.53
2018-01-01T19:57:57.668Z,99475.07
2018-01-01T20:00:26.037Z,99475.02
2018-01-01T20:02:54.392Z,99482.10
2018-01-01T20:05:22.766Z,99481.31
2018-01-01T20:07:51.602Z,99483.50
2018-01-01T20:10:19.980Z,99486.24
2018-01-01T20:12:48.844Z,99487.70
2018-01-01T20:15:17.208Z,99494.64
2018-01-01T20:17:45.571Z,99490.73
2018-01-01T20:20:14.311Z,99491.55
2018-01-01T20:22:42.666Z,99482.84
2018-01-01T20:25:11.004Z,99488.63
2018-01-01T20:27:39.364Z,99477.69
2018-01-01T20:30:07.724Z,99482.03
2018-01-01T20:32:36.200Z,99482.61
2018-01-01T20:35:04.560Z,99475.09
2018-01-01T20:37:32.903Z,99475.94
2018-01-01T20:40:01.660Z,99480.73
2018-01-01T20:42:30.024Z,99476.83
2018-01-01T20:44:58.484Z,99473.30
2018-01-01T20:47:26.841Z,99474.59
2018-01-01T20:49:55.577Z,99475.96
2018-01-01T20:52:23.983Z,99467.00
2018-01-01T20:54:52.449Z,99464.66
2018-01-01T20:57:20.805Z,99456.64
2018-01-01T20:59:49.152Z,99458.30
2018-01-01T21:02:17.509Z,99453.20
2018-01-01T21:04:46.369Z,99448.05
2018-01-01T21:07:14.738Z,99451.00
2018-01-01T21:09:43.122Z,99459.61
2018-01-01T21:12:11.501Z,99455.45
2018-01-01T21:14:39.888Z,99458.59
2018-01-01T21:17:08.252Z,99460.14
2018-01-01T21:19:36.624Z,99452.17
2018-01-01T21:22:04.964Z,99456.24
2018-01-01T21:24:33.803Z,99452.89
2018-01-01T21:27:02.191Z,99452.50
2018-01-01T21:29:30.566Z,99460.44
2018-01-01T21:31:59.840Z,99455.00
2018-01-01T21:34:28.244Z,99460.28
2018-01-01T21:36:56.599Z,99466.41
2018-01-01T21:39:24.955Z,99458.28
2018-01-01T21:41:53.308Z,99466.64
2018-01-01T21:44:21.677Z,99467.19
2018-01-01T21:46:50.028Z,99467.83
2018-01-01T21:49:18.377Z,99469.98
2018-01-01T21:51:46.752Z,99466.98
2018-01-01T21:54:15.109Z,99472.52
2018-01-01T21:56:43.859Z,99464.83
2018-01-01T21:59:12.220Z,99466.93
2018-01-01T22:01:40.567Z,99479.04
2018-01-01T22:04:08.986Z,99473.66
2018-01-01T22:06:37.362Z,99476.33
2018-01-01T22:09:05.707Z,99462.82
2018-01-01T22:11:34.051Z,99473.89
2018-01-01T22:14:02.405Z,99461.97
2018-01-01T22:16:30.778Z,99456.97
2018-01-01T22:18:59.154Z,99458.41
2018-01-01T22:21:27.545Z,99457.80
2018-01-01T22:23:55.908Z,99454.34
2018-01-01T22:26:24.291Z,99461.59
2018-01-01T22:28:52.675Z,99459.33
2018-01-01T22:31:21.048Z,99458.48
2018-01-01T22:33:49.441Z,99459.50
2018-01-01T22:36:17.795Z,99461.61
2018-01-01T22:38:46.240Z,99455.95
2018-01-01T22:41:15.081Z,99457.84
2018-01-01T22:43:43.544Z,99447.69
2018-01-01T22:46:11.938Z,99450.98
2018-01-01T22:48:40.301Z,99450.76
2018-01-01T22:51:08.644Z,99451.41
2018-01-01T22:53:37.408Z,99447.79
2018-01-01T22:56:05.748Z,99455.64
2018-01-01T22:58:34.140Z,99443.94
2018-01-01T23:01:02.496Z,99449.41
2018-01-01T23:03:30.829Z,99444.19
2018-01-01T23:05:59.288Z,99445.98
2018-01-01T23:08:27.645Z,99442.97
2018-01-01T23:10:56.692Z,99437.29
2018-01-01T23:13:25.540Z,99442.61
2018-01-01T23:15:53.918Z,99442.64
2018-01-01T23:18:22.293Z,99447.02
2018-01-01T23:20:50.678Z,99450.45
2018-01-01T23:23:19.032Z,99448.78
2018-01-01T23:25:47.440Z,99438.17
2018-01-01T23:28:15.804Z,99438.59
2018-01-01T23:30:44.157Z,99443.36
2018-01-01T23:33:12.519Z,99436.77
2018-01-01T23:35:41.980Z,99436.95
2018-01-01T23:38:10.349Z,99433.15
2018-01-01T23:40:38.711Z,99439.76
2018-01-01T23:43:07.056Z,99434.64
2018-01-01T23:45:35.816Z,99433.19
2018-01-01T23:48:04.199Z,99438.77
2018-01-01T23:50:32.599Z,99444.51
2018-01-01T23:53:01.448Z,99437.66
2018-01-01T23:55:29.951Z,99436.63
2018-01-01T23:57:58.304Z,99435.29
